Frankton, Indiana
Current Conditions -  °F | °C
As of 2:15 AM on Wednesday 22 Oct 2014 (Local Time) from KMZZ Reporting Station
Clear Clear  
Wind Chill:   Ceiling: Unl
Heat Index:   Visibility: 10mi
Dew Point:   Wind: 6mph
Humidity: 77%   Direction: 30°NNE
Pressure: 30.23"   Gusts: NA
Location:  40.22°N, 85.78°W
Report Text: KMZZ 220615Z AUTO 03005KT 10SM CLR 05/01 A3023 RMK AO2 T00500013
Loading
Personal Weather Stations






























Interactive Weather Map
Tropical Storm Tracking
New forecast layout! Learn more

10-Day Weather Forecast

Advertisements
Track Severe Weather on mobile